sensor_id;sensor_type;location;lat;lon;timestamp;pressure;altitude;pressure_sealevel;temperature;humidity
71145;BME280;58812;47.698;17.726;2023-05-19T00:01:26;100924.69;;;10.62;100.00
71145;BME280;58812;47.698;17.726;2023-05-19T00:03:54;100928.59;;;10.58;100.00
71145;BME280;58812;47.698;17.726;2023-05-19T00:06:23;100915.91;;;10.60;100.00
71145;BME280;58812;47.698;17.726;2023-05-19T00:09:02;100926.91;;;10.57;100.00
71145;BME280;58812;47.698;17.726;2023-05-19T00:11:28;100923.09;;;10.59;100.00
71145;BME280;58812;47.698;17.726;2023-05-19T00:13:55;100920.69;;;10.56;100.00
71145;BME280;58812;47.698;17.726;2023-05-19T00:16:22;100919.84;;;10.56;100.00
71145;BME280;58812;47.698;17.726;2023-05-19T00:18:48;100917.03;;;10.57;100.00
71145;BME280;58812;47.698;17.726;2023-05-19T00:21:14;100911.34;;;10.51;100.00
71145;BME280;58812;47.698;17.726;2023-05-19T00:23:41;100921.28;;;10.60;100.00
71145;BME280;58812;47.698;17.726;2023-05-19T00:26:07;100912.72;;;10.45;100.00
71145;BME280;58812;47.698;17.726;2023-05-19T00:28:32;100906.62;;;10.43;100.00
71145;BME280;58812;47.698;17.726;2023-05-19T00:30:57;100908.34;;;10.44;100.00
71145;BME280;58812;47.698;17.726;2023-05-19T00:33:23;100911.03;;;10.44;100.00
71145;BME280;58812;47.698;17.726;2023-05-19T00:35:48;100900.56;;;10.41;100.00
71145;BME280;58812;47.698;17.726;2023-05-19T00:38:14;100910.44;;;10.40;100.00
71145;BME280;58812;47.698;17.726;2023-05-19T00:40:39;100905.94;;;10.41;100.00
71145;BME280;58812;47.698;17.726;2023-05-19T00:43:05;100909.19;;;10.45;100.00
71145;BME280;58812;47.698;17.726;2023-05-19T00:45:33;100917.22;;;10.45;100.00
71145;BME280;58812;47.698;17.726;2023-05-19T00:47:58;100908.22;;;10.46;100.00
71145;BME280;58812;47.698;17.726;2023-05-19T00:50:24;100905.41;;;10.47;100.00
71145;BME280;58812;47.698;17.726;2023-05-19T00:52:50;100907.94;;;10.49;100.00
71145;BME280;58812;47.698;17.726;2023-05-19T00:55:16;100901.56;;;10.40;100.00
71145;BME280;58812;47.698;17.726;2023-05-19T00:57:42;100903.53;;;10.38;100.00
71145;BME280;58812;47.698;17.726;2023-05-19T01:00:08;100900.06;;;10.26;100.00
71145;BME280;58812;47.698;17.726;2023-05-19T01:02:35;100904.16;;;10.30;100.00
71145;BME280;58812;47.698;17.726;2023-05-19T01:05:05;100903.91;;;10.33;100.00
71145;BME280;58812;47.698;17.726;2023-05-19T01:07:31;100899.53;;;10.32;100.00
71145;BME280;58812;47.698;17.726;2023-05-19T01:09:56;100899.78;;;10.29;100.00
71145;BME280;58812;47.698;17.726;2023-05-19T01:12:22;100903.78;;;10.35;100.00
71145;BME280;58812;47.698;17.726;2023-05-19T01:14:47;100898.56;;;10.33;100.00
71145;BME280;58812;47.698;17.726;2023-05-19T01:20:07;100891.22;;;10.35;100.00
71145;BME280;58812;47.698;17.726;2023-05-19T01:30:38;100899.25;;;10.35;100.00
71145;BME280;58812;47.698;17.726;2023-05-19T01:33:06;100900.16;;;10.25;100.00
71145;BME280;58812;47.698;17.726;2023-05-19T01:35:34;100902.84;;;10.13;100.00
71145;BME280;58812;47.698;17.726;2023-05-19T01:38:02;100899.75;;;10.08;100.00
71145;BME280;58812;47.698;17.726;2023-05-19T01:40:29;100897.78;;;10.10;100.00
71145;BME280;58812;47.698;17.726;2023-05-19T01:42:57;100897.31;;;10.05;100.00
71145;BME280;58812;47.698;17.726;2023-05-19T01:45:24;100897.91;;;10.09;100.00
71145;BME280;58812;47.698;17.726;2023-05-19T01:47:53;100903.03;;;10.01;100.00
71145;BME280;58812;47.698;17.726;2023-05-19T01:50:19;100893.94;;;9.92;100.00
71145;BME280;58812;47.698;17.726;2023-05-19T01:52:45;100897.00;;;9.87;100.00
71145;BME280;58812;47.698;17.726;2023-05-19T01:55:10;100900.16;;;9.93;100.00
71145;BME280;58812;47.698;17.726;2023-05-19T02:03:28;100899.38;;;10.02;100.00
71145;BME280;58812;47.698;17.726;2023-05-19T02:06:10;100909.84;;;10.05;100.00
71145;BME280;58812;47.698;17.726;2023-05-19T02:08:49;100900.97;;;10.04;100.00
71145;BME280;58812;47.698;17.726;2023-05-19T02:11:30;100906.44;;;10.03;100.00
71145;BME280;58812;47.698;17.726;2023-05-19T02:14:02;100907.63;;;10.10;100.00
71145;BME280;58812;47.698;17.726;2023-05-19T02:16:30;100906.44;;;10.03;100.00
71145;BME280;58812;47.698;17.726;2023-05-19T02:18:56;100908.34;;;10.12;100.00
71145;BME280;58812;47.698;17.726;2023-05-19T02:21:23;100908.81;;;10.17;100.00
71145;BME280;58812;47.698;17.726;2023-05-19T02:23:49;100907.25;;;10.14;100.00
71145;BME280;58812;47.698;17.726;2023-05-19T02:26:14;100901.75;;;10.16;100.00
71145;BME280;58812;47.698;17.726;2023-05-19T02:28:40;100909.53;;;10.19;100.00
71145;BME280;58812;47.698;17.726;2023-05-19T02:31:05;100915.84;;;10.18;100.00
71145;BME280;58812;47.698;17.726;2023-05-19T02:33:33;100908.81;;;10.17;100.00
71145;BME280;58812;47.698;17.726;2023-05-19T02:35:59;100901.75;;;10.16;100.00
71145;BME280;58812;47.698;17.726;2023-05-19T02:38:24;100904.69;;;10.13;100.00
71145;BME280;58812;47.698;17.726;2023-05-19T02:40:52;100905.41;;;10.15;100.00
71145;BME280;58812;47.698;17.726;2023-05-19T02:43:18;100895.09;;;10.10;100.00
71145;BME280;58812;47.698;17.726;2023-05-19T02:45:44;100884.78;;;10.06;100.00
71145;BME280;58812;47.698;17.726;2023-05-19T02:48:09;100885.63;;;10.06;100.00
71145;BME280;58812;47.698;17.726;2023-05-19T02:50:35;100883.00;;;9.95;100.00
71145;BME280;58812;47.698;17.726;2023-05-19T02:53:00;100891.75;;;9.97;100.00
71145;BME280;58812;47.698;17.726;2023-05-19T02:55:26;100897.69;;;10.01;100.00
71145;BME280;58812;47.698;17.726;2023-05-19T02:57:52;100888.94;;;9.99;100.00
71145;BME280;58812;47.698;17.726;2023-05-19T03:00:17;100890.63;;;10.00;100.00
71145;BME280;58812;47.698;17.726;2023-05-19T03:02:43;100893.09;;;9.92;100.00
71145;BME280;58812;47.698;17.726;2023-05-19T03:05:09;100901.22;;;9.90;100.00
71145;BME280;58812;47.698;17.726;2023-05-19T03:07:35;100899.03;;;9.95;100.00
71145;BME280;58812;47.698;17.726;2023-05-19T03:10:00;100900.63;;;9.98;100.00
71145;BME280;58812;47.698;17.726;2023-05-19T03:12:28;100899.88;;;9.96;100.00
71145;BME280;58812;47.698;17.726;2023-05-19T03:14:54;100899.53;;;9.89;100.00
71145;BME280;58812;47.698;17.726;2023-05-19T03:17:19;100903.81;;;9.92;100.00
71145;BME280;58812;47.698;17.726;2023-05-19T03:19:45;100903.66;;;9.93;100.00
71145;BME280;58812;47.698;17.726;2023-05-19T03:22:10;100901.84;;;9.94;100.00
71145;BME280;58812;47.698;17.726;2023-05-19T03:24:36;100907.41;;;10.02;100.00
71145;BME280;58812;47.698;17.726;2023-05-19T03:27:02;100907.53;;;10.00;100.00
71145;BME280;58812;47.698;17.726;2023-05-19T03:29:30;100907.03;;;10.06;100.00
71145;BME280;58812;47.698;17.726;2023-05-19T03:31:55;100906.88;;;10.08;100.00
71145;BME280;58812;47.698;17.726;2023-05-19T03:34:20;100907.87;;;10.07;100.00
71145;BME280;58812;47.698;17.726;2023-05-19T03:36:46;100913.56;;;10.13;100.00
71145;BME280;58812;47.698;17.726;2023-05-19T03:39:14;100920.50;;;10.16;100.00
71145;BME280;58812;47.698;17.726;2023-05-19T03:41:40;100918.37;;;10.20;100.00
71145;BME280;58812;47.698;17.726;2023-05-19T03:44:05;100917.31;;;10.22;100.00
71145;BME280;58812;47.698;17.726;2023-05-19T03:46:30;100921.81;;;10.22;100.00
71145;BME280;58812;47.698;17.726;2023-05-19T03:48:56;100924.16;;;10.15;100.00
71145;BME280;58812;47.698;17.726;2023-05-19T03:51:21;100922.03;;;10.18;100.00
71145;BME280;58812;47.698;17.726;2023-05-19T03:53:47;100918.81;;;10.15;100.00
71145;BME280;58812;47.698;17.726;2023-05-19T03:56:12;100921.06;;;10.20;100.00
71145;BME280;58812;47.698;17.726;2023-05-19T03:58:39;100925.47;;;10.21;100.00
71145;BME280;58812;47.698;17.726;2023-05-19T04:01:07;100928.00;;;10.22;100.00
71145;BME280;58812;47.698;17.726;2023-05-19T04:03:33;100927.81;;;10.14;100.00
71145;BME280;58812;47.698;17.726;2023-05-19T04:05:58;100934.44;;;10.20;100.00
71145;BME280;58812;47.698;17.726;2023-05-19T04:08:23;100937.25;;;10.18;100.00
71145;BME280;58812;47.698;17.726;2023-05-19T04:10:49;100940.56;;;10.10;100.00
71145;BME280;58812;47.698;17.726;2023-05-19T04:13:14;100937.53;;;10.15;100.00
71145;BME280;58812;47.698;17.726;2023-05-19T04:15:39;100927.06;;;10.12;100.00
71145;BME280;58812;47.698;17.726;2023-05-19T04:18:05;100933.72;;;10.17;100.00
71145;BME280;58812;47.698;17.726;2023-05-19T04:20:30;100940.69;;;10.20;100.00
71145;BME280;58812;47.698;17.726;2023-05-19T04:22:56;100945.53;;;10.26;100.00
71145;BME280;58812;47.698;17.726;2023-05-19T04:25:21;100945.28;;;10.29;100.00
71145;BME280;58812;47.698;17.726;2023-05-19T04:27:49;100939.69;;;10.32;100.00
71145;BME280;58812;47.698;17.726;2023-05-19T04:30:14;100947.31;;;10.37;100.00
71145;BME280;58812;47.698;17.726;2023-05-19T04:32:46;100949.13;;;10.36;100.00
71145;BME280;58812;47.698;17.726;2023-05-19T04:35:13;100954.09;;;10.41;100.00
71145;BME280;58812;47.698;17.726;2023-05-19T04:37:41;100954.94;;;10.41;100.00
71145;BME280;58812;47.698;17.726;2023-05-19T04:40:10;100954.94;;;10.41;100.00
71145;BME280;58812;47.698;17.726;2023-05-19T04:42:36;100958.47;;;10.42;100.00
71145;BME280;58812;47.698;17.726;2023-05-19T04:45:07;100963.97;;;10.40;100.00
71145;BME280;58812;47.698;17.726;2023-05-19T04:47:36;100962.00;;;10.42;100.00
71145;BME280;58812;47.698;17.726;2023-05-19T04:50:02;100965.41;;;10.45;100.00
71145;BME280;58812;47.698;17.726;2023-05-19T04:52:28;100965.00;;;10.49;100.00
71145;BME280;58812;47.698;17.726;2023-05-19T04:54:53;100966.59;;;10.52;100.00
71145;BME280;58812;47.698;17.726;2023-05-19T04:57:19;100964.44;;;10.46;100.00
71145;BME280;58812;47.698;17.726;2023-05-19T04:59:44;100961.47;;;10.49;100.00
71145;BME280;58812;47.698;17.726;2023-05-19T05:02:11;100962.94;;;10.53;100.00
71145;BME280;58812;47.698;17.726;2023-05-19T05:04:36;100964.00;;;10.61;100.00
71145;BME280;58812;47.698;17.726;2023-05-19T05:07:04;100963.72;;;10.64;100.00
71145;BME280;58812;47.698;17.726;2023-05-19T05:09:30;100961.22;;;10.73;100.00
71145;BME280;58812;47.698;17.726;2023-05-19T05:11:55;100966.25;;;10.66;100.00
71145;BME280;58812;47.698;17.726;2023-05-19T05:14:21;100965.75;;;10.72;100.00
71145;BME280;58812;47.698;17.726;2023-05-19T05:16:48;100960.53;;;10.70;100.00
71145;BME280;58812;47.698;17.726;2023-05-19T05:19:13;100964.75;;;10.73;100.00
71145;BME280;58812;47.698;17.726;2023-05-19T05:21:39;100967.19;;;10.76;100.00
71145;BME280;58812;47.698;17.726;2023-05-19T05:24:06;100973.56;;;10.85;100.00
71145;BME280;58812;47.698;17.726;2023-05-19T05:26:33;100967.66;;;10.81;100.00
71145;BME280;58812;47.698;17.726;2023-05-19T05:28:59;100981.75;;;10.83;100.00
71145;BME280;58812;47.698;17.726;2023-05-19T05:31:25;100977.84;;;10.87;100.00
71145;BME280;58812;47.698;17.726;2023-05-19T05:33:50;100976.50;;;11.03;100.00
71145;BME280;58812;47.698;17.726;2023-05-19T05:36:16;100987.81;;;11.06;100.00
71145;BME280;58812;47.698;17.726;2023-05-19T05:38:41;100989.97;;;11.12;100.00
71145;BME280;58812;47.698;17.726;2023-05-19T05:41:07;100992.25;;;11.17;100.00
71145;BME280;58812;47.698;17.726;2023-05-19T05:43:32;100986.00;;;11.07;100.00
71145;BME280;58812;47.698;17.726;2023-05-19T05:45:57;101000.16;;;11.18;100.00
71145;BME280;58812;47.698;17.726;2023-05-19T05:48:23;100995.25;;;11.23;100.00
71145;BME280;58812;47.698;17.726;2023-05-19T05:50:49;100992.13;;;11.18;100.00
71145;BME280;58812;47.698;17.726;2023-05-19T05:53:19;100998.41;;;11.29;100.00
71145;BME280;58812;47.698;17.726;2023-05-19T05:55:46;101002.91;;;11.28;100.00
71145;BME280;58812;47.698;17.726;2023-05-19T05:58:11;101001.53;;;11.34;100.00
71145;BME280;58812;47.698;17.726;2023-05-19T06:00:40;101003.22;;;11.35;100.00
71145;BME280;58812;47.698;17.726;2023-05-19T06:03:09;101002.09;;;11.37;100.00
71145;BME280;58812;47.698;17.726;2023-05-19T06:05:35;101013.41;;;11.41;100.00
71145;BME280;58812;47.698;17.726;2023-05-19T06:08:01;101008.44;;;11.36;100.00
71145;BME280;58812;47.698;17.726;2023-05-19T06:10:29;101016.94;;;11.41;100.00
71145;BME280;58812;47.698;17.726;2023-05-19T06:12:55;101015.94;;;11.42;100.00
71145;BME280;58812;47.698;17.726;2023-05-19T06:15:20;101019.03;;;11.38;100.00
71145;BME280;58812;47.698;17.726;2023-05-19T06:17:46;101015.31;;;11.29;100.00
71145;BME280;58812;47.698;17.726;2023-05-19T06:20:12;101023.53;;;11.37;100.00
71145;BME280;58812;47.698;17.726;2023-05-19T06:22:37;101019.87;;;11.38;100.00
71145;BME280;58812;47.698;17.726;2023-05-19T06:25:04;101019.03;;;11.38;100.00
71145;BME280;58812;47.698;17.726;2023-05-19T06:27:30;101022.66;;;11.27;100.00
71145;BME280;58812;47.698;17.726;2023-05-19T06:29:55;101027.50;;;11.33;100.00
71145;BME280;58812;47.698;17.726;2023-05-19T06:32:20;101032.72;;;11.35;100.00
71145;BME280;58812;47.698;17.726;2023-05-19T06:34:46;101034.94;;;11.30;100.00
71145;BME280;58812;47.698;17.726;2023-05-19T06:37:21;101036.09;;;11.37;100.00
71145;BME280;58812;47.698;17.726;2023-05-19T06:39:48;101035.78;;;11.30;100.00
71145;BME280;58812;47.698;17.726;2023-05-19T06:42:17;101036.06;;;11.27;100.00
71145;BME280;58812;47.698;17.726;2023-05-19T06:44:46;101041.31;;;11.38;100.00
71145;BME280;58812;47.698;17.726;2023-05-19T06:47:11;101042.44;;;11.36;100.00
71145;BME280;58812;47.698;17.726;2023-05-19T06:49:37;101046.34;;;11.53;100.00
71145;BME280;58812;47.698;17.726;2023-05-19T06:52:02;101044.13;;;11.58;100.00
71145;BME280;58812;47.698;17.726;2023-05-19T06:54:28;101044.28;;;11.66;100.00
71145;BME280;58812;47.698;17.726;2023-05-19T06:56:53;101042.44;;;11.57;100.00
71145;BME280;58812;47.698;17.726;2023-05-19T06:59:19;101040.16;;;11.62;100.00
71145;BME280;58812;47.698;17.726;2023-05-19T07:01:46;101042.31;;;11.68;100.00
71145;BME280;58812;47.698;17.726;2023-05-19T07:04:11;101043.75;;;11.72;100.00
71145;BME280;58812;47.698;17.726;2023-05-19T07:06:37;101039.22;;;11.93;100.00
71145;BME280;58812;47.698;17.726;2023-05-19T07:09:02;101038.22;;;11.94;100.00
71145;BME280;58812;47.698;17.726;2023-05-19T07:11:29;101034.00;;;12.01;100.00
71145;BME280;58812;47.698;17.726;2023-05-19T07:13:55;101034.00;;;12.01;100.00
71145;BME280;58812;47.698;17.726;2023-05-19T07:16:20;101042.78;;;12.13;100.00
71145;BME280;58812;47.698;17.726;2023-05-19T07:18:46;101043.47;;;12.06;100.00
71145;BME280;58812;47.698;17.726;2023-05-19T07:21:11;101044.66;;;12.32;100.00
71145;BME280;58812;47.698;17.726;2023-05-19T07:23:37;101044.69;;;12.42;100.00
71145;BME280;58812;47.698;17.726;2023-05-19T07:26:02;101045.69;;;12.41;100.00
71145;BME280;58812;47.698;17.726;2023-05-19T07:28:28;101045.66;;;12.50;100.00
71145;BME280;58812;47.698;17.726;2023-05-19T07:30:53;101043.72;;;12.52;100.00
71145;BME280;58812;47.698;17.726;2023-05-19T07:33:19;101051.63;;;12.64;100.00
71145;BME280;58812;47.698;17.726;2023-05-19T07:35:44;101043.44;;;12.75;100.00
71145;BME280;58812;47.698;17.726;2023-05-19T07:38:10;101049.78;;;12.74;100.00
71145;BME280;58812;47.698;17.726;2023-05-19T07:40:36;101046.81;;;12.77;100.00
71145;BME280;58812;47.698;17.726;2023-05-19T07:43:01;101040.44;;;13.07;100.00
71145;BME280;58812;47.698;17.726;2023-05-19T07:45:27;101043.84;;;13.28;100.00
71145;BME280;58812;47.698;17.726;2023-05-19T07:47:52;101033.47;;;13.33;100.00
71145;BME280;58812;47.698;17.726;2023-05-19T07:50:18;101039.91;;;13.60;100.00
71145;BME280;58812;47.698;17.726;2023-05-19T07:52:44;101043.22;;;13.81;99.15
71145;BME280;58812;47.698;17.726;2023-05-19T07:55:09;101035.38;;;14.15;97.42
71145;BME280;58812;47.698;17.726;2023-05-19T07:57:36;101045.97;;;13.99;96.76
71145;BME280;58812;47.698;17.726;2023-05-19T08:00:01;101040.03;;;14.23;96.64
71145;BME280;58812;47.698;17.726;2023-05-19T08:02:32;101044.88;;;14.47;96.29
71145;BME280;58812;47.698;17.726;2023-05-19T08:04:57;101049.25;;;14.66;94.36
71145;BME280;58812;47.698;17.726;2023-05-19T08:07:23;101039.59;;;14.99;92.43
71145;BME280;58812;47.698;17.726;2023-05-19T08:09:48;101049.97;;;15.12;93.02
71145;BME280;58812;47.698;17.726;2023-05-19T08:12:14;101051.28;;;15.26;91.90
71145;BME280;58812;47.698;17.726;2023-05-19T08:14:39;101046.50;;;15.19;90.59
71145;BME280;58812;47.698;17.726;2023-05-19T08:17:05;101047.47;;;15.36;90.28
71145;BME280;58812;47.698;17.726;2023-05-19T08:19:30;101037.37;;;15.12;90.10
71145;BME280;58812;47.698;17.726;2023-05-19T08:21:56;101038.22;;;15.39;89.13
71145;BME280;58812;47.698;17.726;2023-05-19T08:24:22;101039.16;;;15.82;89.66
71145;BME280;58812;47.698;17.726;2023-05-19T08:26:47;101041.16;;;16.14;88.87
71145;BME280;58812;47.698;17.726;2023-05-19T08:29:13;101033.81;;;16.48;86.72
71145;BME280;58812;47.698;17.726;2023-05-19T08:31:38;101027.75;;;16.71;86.01
71145;BME280;58812;47.698;17.726;2023-05-19T08:34:04;101031.38;;;16.21;84.20
71145;BME280;58812;47.698;17.726;2023-05-19T08:36:29;101026.94;;;16.87;83.69
71145;BME280;58812;47.698;17.726;2023-05-19T08:38:54;101026.94;;;16.87;83.59
71145;BME280;58812;47.698;17.726;2023-05-19T08:41:20;101032.94;;;16.48;86.11
71145;BME280;58812;47.698;17.726;2023-05-19T08:43:47;101025.03;;;16.54;86.42
71145;BME280;58812;47.698;17.726;2023-05-19T08:46:15;101023.91;;;16.81;85.29
71145;BME280;58812;47.698;17.726;2023-05-19T08:48:41;101037.41;;;17.06;84.25
71145;BME280;58812;47.698;17.726;2023-05-19T08:51:29;101023.91;;;17.14;82.35
71145;BME280;58812;47.698;17.726;2023-05-19T08:54:36;101025.84;;;17.61;81.32
71145;BME280;58812;47.698;17.726;2023-05-19T08:56:53;101031.66;;;17.97;80.84
71145;BME280;58812;47.698;17.726;2023-05-19T08:59:20;101023.94;;;17.70;82.00
71145;BME280;58812;47.698;17.726;2023-05-19T09:01:46;101028.50;;;17.69;80.31
71145;BME280;58812;47.698;17.726;2023-05-19T09:04:14;101027.06;;;17.98;78.23
71145;BME280;58812;47.698;17.726;2023-05-19T09:06:40;101020.25;;;18.02;77.35
71145;BME280;58812;47.698;17.726;2023-05-19T09:09:06;101030.56;;;18.14;78.54
71145;BME280;58812;47.698;17.726;2023-05-19T09:11:33;101029.56;;;18.38;76.27
71145;BME280;58812;47.698;17.726;2023-05-19T09:14:01;101019.09;;;17.41;80.54
71145;BME280;58812;47.698;17.726;2023-05-19T09:16:27;101024.75;;;17.15;80.11
71145;BME280;58812;47.698;17.726;2023-05-19T09:18:54;101023.78;;;17.79;78.58
71145;BME280;58812;47.698;17.726;2023-05-19T09:21:27;101024.06;;;17.93;77.79
71145;BME280;58812;47.698;17.726;2023-05-19T09:24:04;101024.38;;;17.89;77.16
71145;BME280;58812;47.698;17.726;2023-05-19T09:26:40;101027.22;;;18.04;78.12
71145;BME280;58812;47.698;17.726;2023-05-19T09:29:16;101014.44;;;16.86;81.61
71145;BME280;58812;47.698;17.726;2023-05-19T09:31:51;101010.47;;;17.37;80.25
71145;BME280;58812;47.698;17.726;2023-05-19T09:34:18;101011.78;;;17.74;79.01
71145;BME280;58812;47.698;17.726;2023-05-19T09:36:46;101015.91;;;16.55;81.88
71145;BME280;58812;47.698;17.726;2023-05-19T09:39:14;101016.09;;;17.27;82.20
71145;BME280;58812;47.698;17.726;2023-05-19T09:41:40;101010.91;;;17.65;80.15
71145;BME280;58812;47.698;17.726;2023-05-19T09:44:06;101015.47;;;17.65;80.85
71145;BME280;58812;47.698;17.726;2023-05-19T09:46:31;101012.94;;;17.79;80.16
71145;BME280;58812;47.698;17.726;2023-05-19T09:49:06;101013.03;;;17.94;77.94
71145;BME280;58812;47.698;17.726;2023-05-19T09:51:34;101012.22;;;17.85;76.28
71145;BME280;58812;47.698;17.726;2023-05-19T09:54:01;101021.59;;;17.58;79.96
71145;BME280;58812;47.698;17.726;2023-05-19T09:56:31;101018.59;;;18.01;78.00
71145;BME280;58812;47.698;17.726;2023-05-19T09:58:58;101011.44;;;18.08;76.92
71145;BME280;58812;47.698;17.726;2023-05-19T10:01:24;101015.91;;;17.93;76.48
71145;BME280;58812;47.698;17.726;2023-05-19T10:03:51;101015.00;;;18.85;74.41
71145;BME280;58812;47.698;17.726;2023-05-19T10:06:16;101014.34;;;19.21;72.85
71145;BME280;58812;47.698;17.726;2023-05-19T10:08:42;101010.91;;;19.42;71.47
71145;BME280;58812;47.698;17.726;2023-05-19T10:11:08;101013.37;;;20.32;68.09
71145;BME280;58812;47.698;17.726;2023-05-19T10:13:35;101005.41;;;19.35;68.92
71145;BME280;58812;47.698;17.726;2023-05-19T10:16:02;101004.28;;;19.89;69.10
71145;BME280;58812;47.698;17.726;2023-05-19T10:18:29;100997.19;;;20.82;66.66
71145;BME280;58812;47.698;17.726;2023-05-19T10:20:57;101006.41;;;20.44;66.74
71145;BME280;58812;47.698;17.726;2023-05-19T10:23:25;100996.78;;;20.06;70.04
71145;BME280;58812;47.698;17.726;2023-05-19T10:25:53;100987.53;;;18.88;76.40
71145;BME280;58812;47.698;17.726;2023-05-19T10:28:21;100989.28;;;20.65;68.72
71145;BME280;58812;47.698;17.726;2023-05-19T10:30:53;100992.09;;;19.99;69.58
71145;BME280;58812;47.698;17.726;2023-05-19T10:39:02;100980.63;;;18.09;74.53
71145;BME280;58812;47.698;17.726;2023-05-19T10:47:08;100979.44;;;19.33;71.95
71145;BME280;58812;47.698;17.726;2023-05-19T10:49:36;100977.69;;;19.55;71.73
71145;BME280;58812;47.698;17.726;2023-05-19T10:52:02;100972.63;;;19.22;71.09
71145;BME280;58812;47.698;17.726;2023-05-19T10:54:44;100969.22;;;19.20;72.82
71145;BME280;58812;47.698;17.726;2023-05-19T10:57:15;100976.06;;;19.31;71.41
71145;BME280;58812;47.698;17.726;2023-05-19T10:59:41;100969.25;;;19.35;71.28
71145;BME280;58812;47.698;17.726;2023-05-19T11:02:09;100974.91;;;19.63;71.18
71145;BME280;58812;47.698;17.726;2023-05-19T11:04:50;100965.69;;;19.93;69.84
71145;BME280;58812;47.698;17.726;2023-05-19T11:07:17;100966.38;;;19.66;68.90
71145;BME280;58812;47.698;17.726;2023-05-19T11:09:48;100972.47;;;20.40;67.85
71145;BME280;58812;47.698;17.726;2023-05-19T11:12:19;100969.25;;;20.94;64.68
71145;BME280;58812;47.698;17.726;2023-05-19T11:14:45;100969.66;;;20.98;63.56
71145;BME280;58812;47.698;17.726;2023-05-19T11:17:14;100966.50;;;21.22;63.55
71145;BME280;58812;47.698;17.726;2023-05-19T11:19:51;100969.31;;;21.29;62.45
71145;BME280;58812;47.698;17.726;2023-05-19T11:22:22;100973.69;;;22.06;61.27
71145;BME280;58812;47.698;17.726;2023-05-19T11:24:48;100961.12;;;22.11;59.25
71145;BME280;58812;47.698;17.726;2023-05-19T11:30:16;100956.56;;;22.38;57.56
71145;BME280;58812;47.698;17.726;2023-05-19T11:32:46;100958.00;;;21.67;61.50
71145;BME280;58812;47.698;17.726;2023-05-19T11:35:12;100966.94;;;21.26;60.37
71145;BME280;58812;47.698;17.726;2023-05-19T11:37:38;100964.62;;;21.99;60.95
71145;BME280;58812;47.698;17.726;2023-05-19T11:40:06;100970.34;;;22.10;59.34
71145;BME280;58812;47.698;17.726;2023-05-19T11:42:33;100962.69;;;20.89;62.71
71145;BME280;58812;47.698;17.726;2023-05-19T11:44:59;100955.00;;;20.99;63.30
71145;BME280;58812;47.698;17.726;2023-05-19T11:47:26;100964.28;;;20.55;64.55
71145;BME280;58812;47.698;17.726;2023-05-19T11:49:53;100963.13;;;21.48;60.92
71145;BME280;58812;47.698;17.726;2023-05-19T11:52:24;100966.00;;;21.81;60.36
71145;BME280;58812;47.698;17.726;2023-05-19T11:54:51;100951.34;;;20.85;63.50
71145;BME280;58812;47.698;17.726;2023-05-19T11:57:19;100957.31;;;21.23;62.30
71145;BME280;58812;47.698;17.726;2023-05-19T11:59:45;100953.16;;;22.10;61.51
71145;BME280;58812;47.698;17.726;2023-05-19T12:02:25;100955.19;;;22.01;58.82
71145;BME280;58812;47.698;17.726;2023-05-19T12:04:53;100950.88;;;21.31;62.03
71145;BME280;58812;47.698;17.726;2023-05-19T12:07:22;100946.75;;;21.14;63.45
71145;BME280;58812;47.698;17.726;2023-05-19T12:09:51;100951.78;;;21.17;66.91
71145;BME280;58812;47.698;17.726;2023-05-19T12:12:18;100946.91;;;21.33;65.05
71145;BME280;58812;47.698;17.726;2023-05-19T12:14:49;100942.69;;;20.75;65.83
71145;BME280;58812;47.698;17.726;2023-05-19T12:17:17;100940.19;;;21.01;65.19
71145;BME280;58812;47.698;17.726;2023-05-19T12:19:45;100940.94;;;20.67;65.43
71145;BME280;58812;47.698;17.726;2023-05-19T12:22:12;100934.47;;;20.96;65.48
71145;BME280;58812;47.698;17.726;2023-05-19T12:24:37;100940.19;;;21.29;64.10
71145;BME280;58812;47.698;17.726;2023-05-19T12:27:19;100934.50;;;21.66;62.18
71145;BME280;58812;47.698;17.726;2023-05-19T12:29:50;100933.94;;;21.77;60.50
71145;BME280;58812;47.698;17.726;2023-05-19T12:32:25;100929.88;;;21.59;60.83
71145;BME280;58812;47.698;17.726;2023-05-19T12:34:51;100932.41;;;21.61;61.65
71145;BME280;58812;47.698;17.726;2023-05-19T12:37:17;100935.81;;;21.76;60.70
71145;BME280;58812;47.698;17.726;2023-05-19T12:39:43;100933.66;;;22.13;60.71
71145;BME280;58812;47.698;17.726;2023-05-19T12:42:10;100932.09;;;21.97;60.11
71145;BME280;58812;47.698;17.726;2023-05-19T12:44:38;100927.03;;;21.05;62.90
71145;BME280;58812;47.698;17.726;2023-05-19T12:47:06;100916.72;;;20.72;65.21
71145;BME280;58812;47.698;17.726;2023-05-19T12:49:32;100926.62;;;21.91;62.14
71145;BME280;58812;47.698;17.726;2023-05-19T12:52:00;100929.91;;;22.40;60.40
71145;BME280;58812;47.698;17.726;2023-05-19T12:54:31;100923.59;;;22.20;59.27
71145;BME280;58812;47.698;17.726;2023-05-19T12:56:57;100913.62;;;21.86;58.82
71145;BME280;58812;47.698;17.726;2023-05-19T12:59:23;100916.50;;;22.39;57.76
71145;BME280;58812;47.698;17.726;2023-05-19T13:01:56;100919.41;;;22.18;59.01
71145;BME280;58812;47.698;17.726;2023-05-19T13:04:23;100912.53;;;22.61;57.77
71145;BME280;58812;47.698;17.726;2023-05-19T13:06:48;100920.25;;;22.25;58.38